Airfield :
LOGIN :

Register | Disclaimer

   EN    FR    IT 

 










Legend :    VFR   Marginal VFR   IFR   Intensive IFR   Very Intensive IFR
Visi :
Ceiling :
>= 8 km
>= 3000ft
5 to 8 km
1000 to 3000 ft
1500m to 5 km
500 to 1000 ft
800 to 1500m
200 to 500 ft
< 800m
< 200 ft
Symbols :   Thunderstorms  Fog  Heavy snow  Heavy precipitations  Wind > 20 kt
SIGMETs :     Misc.  Thunderstorms  Icing  Turbulence  Mountain Waves  Volcanic Ashes







- Airport Elevation : 65 ft
- IATA code : PIK
- Download approach charts


EGPK - Glasgow Prestwick

CURRENT METAR :
  • 162350Z 25013KT 9999 -RA FEW010 SCT020 13/11 Q1012

EXPIRED METARs :
  • 162320Z 25011KT 9999 FEW012 SCT030 13/11 Q1012
  • 162250Z 24011KT 9999 FEW010 SCT025 13/11 Q1012
  • 162220Z 26013KT 9999 -RA FEW010 SCT025 13/12 Q1012

TAF TAF EGPK
Valid from the 17 at 00:00 until the 18 at 00:00 UTC


162254Z 1700/1724 23012KT 9999 FEW010 SCT025
PROB30
TEMPO 1700/1707 8000 -SHRA BKN014
TEMPO 1707/1720 7000 RA BKN012
PROB30
TEMPO 1709/1720 BKN008
TEMPO 1710/1721 22017G27KT
No reported NOTAMs for that airfield.



MET'MAP, your aeronautical weather chart ! - Copyright ORBIFLY December 2007 - Disclaimer

ORBIFLY MET'MAP TEAM :

Programming & Development : Alexandra Zaïnal
Concept & Development : Baudouin d'Aumeries
Co-Development & Prog : Marc-Olivier Méhu
Technical & hardware support : Manuel Goepfert

Contact : metmap@orbifly.com




SOURCES & CREDITS :

   NOAA